sensor_id;sensor_type;location;lat;lon;timestamp;temperature;humidity
25963;DHT22;13760;52.588;13.406;2023-05-07T00:01:17;8.80;99.90
25963;DHT22;13760;52.588;13.406;2023-05-07T00:03:42;8.80;99.90
25963;DHT22;13760;52.588;13.406;2023-05-07T00:06:08;8.80;99.90
25963;DHT22;13760;52.588;13.406;2023-05-07T00:08:34;8.90;99.90
25963;DHT22;13760;52.588;13.406;2023-05-07T00:10:59;8.90;99.90
25963;DHT22;13760;52.588;13.406;2023-05-07T00:13:25;8.90;99.90
25963;DHT22;13760;52.588;13.406;2023-05-07T00:15:50;8.90;99.90
25963;DHT22;13760;52.588;13.406;2023-05-07T00:18:16;8.90;99.90
25963;DHT22;13760;52.588;13.406;2023-05-07T00:20:41;8.90;99.90
25963;DHT22;13760;52.588;13.406;2023-05-07T00:23:07;8.90;99.90
25963;DHT22;13760;52.588;13.406;2023-05-07T00:25:32;8.90;99.90
25963;DHT22;13760;52.588;13.406;2023-05-07T00:27:58;8.80;99.90
25963;DHT22;13760;52.588;13.406;2023-05-07T00:30:29;8.80;99.90
25963;DHT22;13760;52.588;13.406;2023-05-07T00:32:54;8.80;99.90
25963;DHT22;13760;52.588;13.406;2023-05-07T00:35:20;8.80;99.90
25963;DHT22;13760;52.588;13.406;2023-05-07T00:37:45;8.80;99.90
25963;DHT22;13760;52.588;13.406;2023-05-07T00:40:11;8.80;99.90
25963;DHT22;13760;52.588;13.406;2023-05-07T00:42:37;8.80;99.90
25963;DHT22;13760;52.588;13.406;2023-05-07T00:45:03;8.70;99.90
25963;DHT22;13760;52.588;13.406;2023-05-07T00:47:29;8.70;99.90
25963;DHT22;13760;52.588;13.406;2023-05-07T00:49:55;8.80;99.90
25963;DHT22;13760;52.588;13.406;2023-05-07T00:52:24;8.80;99.90
25963;DHT22;13760;52.588;13.406;2023-05-07T00:54:51;8.80;99.90
25963;DHT22;13760;52.588;13.406;2023-05-07T00:57:17;8.80;99.90
25963;DHT22;13760;52.588;13.406;2023-05-07T00:59:43;8.80;99.90
25963;DHT22;13760;52.588;13.406;2023-05-07T01:02:08;8.80;99.90
25963;DHT22;13760;52.588;13.406;2023-05-07T01:04:34;8.80;99.90
25963;DHT22;13760;52.588;13.406;2023-05-07T01:07:01;8.80;99.90
25963;DHT22;13760;52.588;13.406;2023-05-07T01:09:28;8.80;99.90
25963;DHT22;13760;52.588;13.406;2023-05-07T01:11:55;8.80;99.90
25963;DHT22;13760;52.588;13.406;2023-05-07T01:14:22;8.80;99.90
25963;DHT22;13760;52.588;13.406;2023-05-07T01:16:48;8.80;99.90
25963;DHT22;13760;52.588;13.406;2023-05-07T01:19:18;8.80;99.90
25963;DHT22;13760;52.588;13.406;2023-05-07T01:21:46;8.80;99.90
25963;DHT22;13760;52.588;13.406;2023-05-07T01:24:13;8.70;99.90
25963;DHT22;13760;52.588;13.406;2023-05-07T01:26:39;8.70;99.90
25963;DHT22;13760;52.588;13.406;2023-05-07T01:29:05;8.80;99.90
25963;DHT22;13760;52.588;13.406;2023-05-07T01:31:32;8.70;99.90
25963;DHT22;13760;52.588;13.406;2023-05-07T01:33:59;8.70;99.90
25963;DHT22;13760;52.588;13.406;2023-05-07T01:36:27;8.70;99.90
25963;DHT22;13760;52.588;13.406;2023-05-07T01:38:54;8.70;99.90
25963;DHT22;13760;52.588;13.406;2023-05-07T01:41:20;8.80;99.90
25963;DHT22;13760;52.588;13.406;2023-05-07T01:43:46;8.80;99.90
25963;DHT22;13760;52.588;13.406;2023-05-07T01:46:12;8.70;99.90
25963;DHT22;13760;52.588;13.406;2023-05-07T01:48:38;8.80;99.90
25963;DHT22;13760;52.588;13.406;2023-05-07T01:51:04;8.80;99.90
25963;DHT22;13760;52.588;13.406;2023-05-07T01:53:36;8.80;99.90
25963;DHT22;13760;52.588;13.406;2023-05-07T01:56:02;8.70;99.90
25963;DHT22;13760;52.588;13.406;2023-05-07T01:58:28;8.70;99.90
25963;DHT22;13760;52.588;13.406;2023-05-07T02:00:53;8.70;99.90
25963;DHT22;13760;52.588;13.406;2023-05-07T02:03:19;8.70;99.90
25963;DHT22;13760;52.588;13.406;2023-05-07T02:05:44;8.70;99.90
25963;DHT22;13760;52.588;13.406;2023-05-07T02:08:10;8.70;99.90
25963;DHT22;13760;52.588;13.406;2023-05-07T02:10:35;8.70;99.90
25963;DHT22;13760;52.588;13.406;2023-05-07T02:13:01;8.70;99.90
25963;DHT22;13760;52.588;13.406;2023-05-07T02:15:27;8.70;99.90
25963;DHT22;13760;52.588;13.406;2023-05-07T02:18:08;8.70;99.90
25963;DHT22;13760;52.588;13.406;2023-05-07T02:20:34;8.70;99.90
25963;DHT22;13760;52.588;13.406;2023-05-07T02:23:00;8.70;99.90
25963;DHT22;13760;52.588;13.406;2023-05-07T02:25:26;8.70;99.90
25963;DHT22;13760;52.588;13.406;2023-05-07T02:27:51;8.70;99.90
25963;DHT22;13760;52.588;13.406;2023-05-07T02:30:17;8.70;99.90
25963;DHT22;13760;52.588;13.406;2023-05-07T02:32:42;8.70;99.90
25963;DHT22;13760;52.588;13.406;2023-05-07T02:35:08;8.70;99.90
25963;DHT22;13760;52.588;13.406;2023-05-07T02:37:33;8.70;99.90
25963;DHT22;13760;52.588;13.406;2023-05-07T02:39:59;8.70;99.90
25963;DHT22;13760;52.588;13.406;2023-05-07T02:42:24;8.70;99.90
25963;DHT22;13760;52.588;13.406;2023-05-07T02:44:50;8.70;99.90
25963;DHT22;13760;52.588;13.406;2023-05-07T02:47:15;8.70;99.90
25963;DHT22;13760;52.588;13.406;2023-05-07T02:49:41;8.80;99.90
25963;DHT22;13760;52.588;13.406;2023-05-07T02:52:07;8.80;99.90
25963;DHT22;13760;52.588;13.406;2023-05-07T02:54:32;8.70;99.90
25963;DHT22;13760;52.588;13.406;2023-05-07T02:56:58;8.70;99.90
25963;DHT22;13760;52.588;13.406;2023-05-07T02:59:24;8.70;99.90
25963;DHT22;13760;52.588;13.406;2023-05-07T03:01:51;8.70;99.90
25963;DHT22;13760;52.588;13.406;2023-05-07T03:04:17;8.70;99.90
25963;DHT22;13760;52.588;13.406;2023-05-07T03:06:42;8.70;99.90
25963;DHT22;13760;52.588;13.406;2023-05-07T03:09:08;8.70;99.90
25963;DHT22;13760;52.588;13.406;2023-05-07T03:11:33;8.70;99.90
25963;DHT22;13760;52.588;13.406;2023-05-07T03:13:59;8.70;99.90
25963;DHT22;13760;52.588;13.406;2023-05-07T03:16:24;8.70;99.90
25963;DHT22;13760;52.588;13.406;2023-05-07T03:18:51;8.70;99.90
25963;DHT22;13760;52.588;13.406;2023-05-07T03:21:16;8.70;99.90
25963;DHT22;13760;52.588;13.406;2023-05-07T03:23:42;8.70;99.90
25963;DHT22;13760;52.588;13.406;2023-05-07T03:26:07;8.70;99.90
25963;DHT22;13760;52.588;13.406;2023-05-07T03:28:33;8.70;99.90
25963;DHT22;13760;52.588;13.406;2023-05-07T03:30:58;8.70;99.90
25963;DHT22;13760;52.588;13.406;2023-05-07T03:33:24;8.70;99.90
25963;DHT22;13760;52.588;13.406;2023-05-07T03:35:49;8.70;99.90
25963;DHT22;13760;52.588;13.406;2023-05-07T03:38:15;8.70;99.90
25963;DHT22;13760;52.588;13.406;2023-05-07T03:40:40;8.70;99.90
25963;DHT22;13760;52.588;13.406;2023-05-07T03:43:06;8.70;99.90
25963;DHT22;13760;52.588;13.406;2023-05-07T03:45:31;8.70;99.90
25963;DHT22;13760;52.588;13.406;2023-05-07T03:47:57;8.70;99.90
25963;DHT22;13760;52.588;13.406;2023-05-07T03:50:22;8.70;99.90
25963;DHT22;13760;52.588;13.406;2023-05-07T03:52:48;8.70;99.90
25963;DHT22;13760;52.588;13.406;2023-05-07T03:55:13;8.70;99.90
25963;DHT22;13760;52.588;13.406;2023-05-07T03:57:39;8.70;99.90
25963;DHT22;13760;52.588;13.406;2023-05-07T04:00:05;8.70;99.90
25963;DHT22;13760;52.588;13.406;2023-05-07T04:02:32;8.70;99.90
25963;DHT22;13760;52.588;13.406;2023-05-07T04:04:58;8.70;99.90
25963;DHT22;13760;52.588;13.406;2023-05-07T04:07:23;8.70;99.90
25963;DHT22;13760;52.588;13.406;2023-05-07T04:09:49;8.70;99.90
25963;DHT22;13760;52.588;13.406;2023-05-07T04:12:15;8.70;99.90
25963;DHT22;13760;52.588;13.406;2023-05-07T04:14:40;8.70;99.90
25963;DHT22;13760;52.588;13.406;2023-05-07T04:17:06;8.70;99.90
25963;DHT22;13760;52.588;13.406;2023-05-07T04:19:33;8.70;99.90
25963;DHT22;13760;52.588;13.406;2023-05-07T04:21:58;8.70;99.90
25963;DHT22;13760;52.588;13.406;2023-05-07T04:24:24;8.70;99.90
25963;DHT22;13760;52.588;13.406;2023-05-07T04:26:50;8.70;99.90
25963;DHT22;13760;52.588;13.406;2023-05-07T04:29:16;8.70;99.90
25963;DHT22;13760;52.588;13.406;2023-05-07T04:31:42;8.70;99.90
25963;DHT22;13760;52.588;13.406;2023-05-07T04:34:12;8.70;99.90
25963;DHT22;13760;52.588;13.406;2023-05-07T04:36:38;8.70;99.90
25963;DHT22;13760;52.588;13.406;2023-05-07T04:39:06;8.70;99.90
25963;DHT22;13760;52.588;13.406;2023-05-07T04:41:32;8.70;99.90
25963;DHT22;13760;52.588;13.406;2023-05-07T04:43:57;8.70;99.90
25963;DHT22;13760;52.588;13.406;2023-05-07T04:46:24;8.70;99.90
25963;DHT22;13760;52.588;13.406;2023-05-07T04:48:50;8.80;99.90
25963;DHT22;13760;52.588;13.406;2023-05-07T04:51:15;8.80;99.90
25963;DHT22;13760;52.588;13.406;2023-05-07T04:53:41;8.80;99.90
25963;DHT22;13760;52.588;13.406;2023-05-07T04:56:08;8.90;99.90
25963;DHT22;13760;52.588;13.406;2023-05-07T04:58:33;8.80;99.90
25963;DHT22;13760;52.588;13.406;2023-05-07T05:00:59;8.80;99.90
25963;DHT22;13760;52.588;13.406;2023-05-07T05:03:25;8.80;99.90
25963;DHT22;13760;52.588;13.406;2023-05-07T05:05:51;8.80;99.90
25963;DHT22;13760;52.588;13.406;2023-05-07T05:08:18;8.80;99.90
25963;DHT22;13760;52.588;13.406;2023-05-07T05:10:43;8.80;99.90
25963;DHT22;13760;52.588;13.406;2023-05-07T05:13:09;8.90;99.90
25963;DHT22;13760;52.588;13.406;2023-05-07T05:15:35;8.90;99.90
25963;DHT22;13760;52.588;13.406;2023-05-07T05:18:01;8.90;99.90
25963;DHT22;13760;52.588;13.406;2023-05-07T05:20:26;8.90;99.90
25963;DHT22;13760;52.588;13.406;2023-05-07T05:22:52;8.90;99.90
25963;DHT22;13760;52.588;13.406;2023-05-07T05:25:17;8.90;99.90
25963;DHT22;13760;52.588;13.406;2023-05-07T05:27:43;9.00;99.90
25963;DHT22;13760;52.588;13.406;2023-05-07T05:30:09;9.00;99.90
25963;DHT22;13760;52.588;13.406;2023-05-07T05:32:34;9.00;99.90
25963;DHT22;13760;52.588;13.406;2023-05-07T05:35:00;9.10;99.90
25963;DHT22;13760;52.588;13.406;2023-05-07T05:37:25;9.10;99.90
25963;DHT22;13760;52.588;13.406;2023-05-07T05:39:52;9.20;99.90
25963;DHT22;13760;52.588;13.406;2023-05-07T05:42:18;9.20;99.90
25963;DHT22;13760;52.588;13.406;2023-05-07T05:44:43;9.30;99.90
25963;DHT22;13760;52.588;13.406;2023-05-07T05:47:09;9.30;99.90
25963;DHT22;13760;52.588;13.406;2023-05-07T05:49:34;9.40;99.90
25963;DHT22;13760;52.588;13.406;2023-05-07T05:52:00;9.40;99.90
25963;DHT22;13760;52.588;13.406;2023-05-07T05:54:25;9.40;99.90
25963;DHT22;13760;52.588;13.406;2023-05-07T05:56:51;9.50;99.90
25963;DHT22;13760;52.588;13.406;2023-05-07T05:59:16;9.60;99.90
25963;DHT22;13760;52.588;13.406;2023-05-07T06:01:42;9.60;99.90
25963;DHT22;13760;52.588;13.406;2023-05-07T06:04:07;9.60;99.90
25963;DHT22;13760;52.588;13.406;2023-05-07T06:06:33;9.60;99.90
25963;DHT22;13760;52.588;13.406;2023-05-07T06:08:59;9.60;99.90
25963;DHT22;13760;52.588;13.406;2023-05-07T06:11:24;9.60;99.90
25963;DHT22;13760;52.588;13.406;2023-05-07T06:13:50;9.60;99.90
25963;DHT22;13760;52.588;13.406;2023-05-07T06:16:16;9.70;99.90
25963;DHT22;13760;52.588;13.406;2023-05-07T06:18:41;9.70;99.90
25963;DHT22;13760;52.588;13.406;2023-05-07T06:21:07;9.80;99.90
25963;DHT22;13760;52.588;13.406;2023-05-07T06:23:32;9.70;99.90
25963;DHT22;13760;52.588;13.406;2023-05-07T06:25:58;9.80;99.90
25963;DHT22;13760;52.588;13.406;2023-05-07T06:28:23;9.80;99.90
25963;DHT22;13760;52.588;13.406;2023-05-07T06:30:49;9.80;99.90
25963;DHT22;13760;52.588;13.406;2023-05-07T06:33:15;9.80;99.90
25963;DHT22;13760;52.588;13.406;2023-05-07T06:35:42;9.90;99.90
25963;DHT22;13760;52.588;13.406;2023-05-07T06:38:07;9.90;99.90
25963;DHT22;13760;52.588;13.406;2023-05-07T06:40:33;10.00;99.90
25963;DHT22;13760;52.588;13.406;2023-05-07T06:42:58;10.10;99.90
25963;DHT22;13760;52.588;13.406;2023-05-07T06:45:24;10.20;99.90
25963;DHT22;13760;52.588;13.406;2023-05-07T06:47:50;10.30;99.90
25963;DHT22;13760;52.588;13.406;2023-05-07T06:50:16;10.30;99.90
25963;DHT22;13760;52.588;13.406;2023-05-07T06:52:42;10.40;99.90
25963;DHT22;13760;52.588;13.406;2023-05-07T06:55:08;10.40;99.90
25963;DHT22;13760;52.588;13.406;2023-05-07T06:57:34;10.40;99.90
25963;DHT22;13760;52.588;13.406;2023-05-07T06:59:59;10.60;99.90
25963;DHT22;13760;52.588;13.406;2023-05-07T07:02:25;10.70;99.90
25963;DHT22;13760;52.588;13.406;2023-05-07T07:04:51;10.80;99.90
25963;DHT22;13760;52.588;13.406;2023-05-07T07:07:16;10.80;99.90
25963;DHT22;13760;52.588;13.406;2023-05-07T07:09:42;10.90;99.90
25963;DHT22;13760;52.588;13.406;2023-05-07T07:12:07;10.90;99.90
25963;DHT22;13760;52.588;13.406;2023-05-07T07:14:32;11.00;99.90
25963;DHT22;13760;52.588;13.406;2023-05-07T07:16:58;11.30;99.90
25963;DHT22;13760;52.588;13.406;2023-05-07T07:19:23;11.60;99.90
25963;DHT22;13760;52.588;13.406;2023-05-07T07:21:49;11.90;99.90
25963;DHT22;13760;52.588;13.406;2023-05-07T07:24:15;12.10;99.90
25963;DHT22;13760;52.588;13.406;2023-05-07T07:26:44;12.30;99.90
25963;DHT22;13760;52.588;13.406;2023-05-07T07:29:10;12.40;99.90
25963;DHT22;13760;52.588;13.406;2023-05-07T07:31:35;12.40;99.90
25963;DHT22;13760;52.588;13.406;2023-05-07T07:34:01;12.30;99.90
25963;DHT22;13760;52.588;13.406;2023-05-07T07:36:26;12.40;99.90
25963;DHT22;13760;52.588;13.406;2023-05-07T07:38:53;12.30;99.90
25963;DHT22;13760;52.588;13.406;2023-05-07T07:41:19;12.40;99.90
25963;DHT22;13760;52.588;13.406;2023-05-07T07:43:44;12.50;99.90
25963;DHT22;13760;52.588;13.406;2023-05-07T07:46:12;12.70;99.90
25963;DHT22;13760;52.588;13.406;2023-05-07T07:48:37;12.80;99.90
25963;DHT22;13760;52.588;13.406;2023-05-07T07:51:03;13.00;99.90
25963;DHT22;13760;52.588;13.406;2023-05-07T07:53:29;13.00;99.90
25963;DHT22;13760;52.588;13.406;2023-05-07T07:55:54;13.00;99.90
25963;DHT22;13760;52.588;13.406;2023-05-07T07:58:20;13.20;99.90
25963;DHT22;13760;52.588;13.406;2023-05-07T08:00:47;13.30;99.90
25963;DHT22;13760;52.588;13.406;2023-05-07T08:03:13;13.10;99.90
25963;DHT22;13760;52.588;13.406;2023-05-07T08:05:39;13.20;99.90
25963;DHT22;13760;52.588;13.406;2023-05-07T08:08:05;13.30;99.90
25963;DHT22;13760;52.588;13.406;2023-05-07T08:10:31;13.40;99.90
25963;DHT22;13760;52.588;13.406;2023-05-07T08:13:00;13.40;99.90
25963;DHT22;13760;52.588;13.406;2023-05-07T08:15:25;13.50;99.90
25963;DHT22;13760;52.588;13.406;2023-05-07T08:17:51;13.70;99.90
25963;DHT22;13760;52.588;13.406;2023-05-07T08:20:16;13.90;99.90
25963;DHT22;13760;52.588;13.406;2023-05-07T08:22:42;14.00;99.90
25963;DHT22;13760;52.588;13.406;2023-05-07T08:25:08;14.10;99.90
25963;DHT22;13760;52.588;13.406;2023-05-07T08:27:34;14.20;99.90
25963;DHT22;13760;52.588;13.406;2023-05-07T08:29:59;14.30;99.90
25963;DHT22;13760;52.588;13.406;2023-05-07T08:32:25;14.40;99.90
25963;DHT22;13760;52.588;13.406;2023-05-07T08:34:50;14.70;99.90
25963;DHT22;13760;52.588;13.406;2023-05-07T08:37:16;14.80;99.90
25963;DHT22;13760;52.588;13.406;2023-05-07T08:39:41;15.00;99.90
25963;DHT22;13760;52.588;13.406;2023-05-07T08:42:09;15.00;99.90
25963;DHT22;13760;52.588;13.406;2023-05-07T08:44:35;15.00;99.90
25963;DHT22;13760;52.588;13.406;2023-05-07T08:47:01;14.90;99.90
25963;DHT22;13760;52.588;13.406;2023-05-07T08:49:27;15.00;99.90
25963;DHT22;13760;52.588;13.406;2023-05-07T08:51:53;15.10;99.90
25963;DHT22;13760;52.588;13.406;2023-05-07T08:54:20;15.30;99.90
25963;DHT22;13760;52.588;13.406;2023-05-07T08:56:46;15.40;99.90
25963;DHT22;13760;52.588;13.406;2023-05-07T08:59:11;15.40;99.90
25963;DHT22;13760;52.588;13.406;2023-05-07T09:01:37;15.50;99.90
25963;DHT22;13760;52.588;13.406;2023-05-07T09:04:04;15.50;99.90
25963;DHT22;13760;52.588;13.406;2023-05-07T09:06:30;15.40;99.90
25963;DHT22;13760;52.588;13.406;2023-05-07T09:08:56;15.40;99.90
25963;DHT22;13760;52.588;13.406;2023-05-07T09:11:24;15.30;99.90
25963;DHT22;13760;52.588;13.406;2023-05-07T09:13:56;15.20;99.90
25963;DHT22;13760;52.588;13.406;2023-05-07T09:16:25;15.20;99.90
25963;DHT22;13760;52.588;13.406;2023-05-07T09:18:51;15.20;99.90
25963;DHT22;13760;52.588;13.406;2023-05-07T09:21:19;15.20;99.90
25963;DHT22;13760;52.588;13.406;2023-05-07T09:23:44;15.10;99.90
25963;DHT22;13760;52.588;13.406;2023-05-07T09:26:10;15.10;99.90
25963;DHT22;13760;52.588;13.406;2023-05-07T09:28:41;15.00;99.90
25963;DHT22;13760;52.588;13.406;2023-05-07T09:31:08;14.90;99.90
25963;DHT22;13760;52.588;13.406;2023-05-07T09:33:33;14.80;99.90
25963;DHT22;13760;52.588;13.406;2023-05-07T09:36:03;14.80;99.90
25963;DHT22;13760;52.588;13.406;2023-05-07T09:38:28;14.70;99.90
25963;DHT22;13760;52.588;13.406;2023-05-07T09:41:14;14.90;99.90
25963;DHT22;13760;52.588;13.406;2023-05-07T09:43:40;15.10;99.90
25963;DHT22;13760;52.588;13.406;2023-05-07T09:46:15;15.30;99.90
25963;DHT22;13760;52.588;13.406;2023-05-07T09:48:43;15.40;99.90
25963;DHT22;13760;52.588;13.406;2023-05-07T09:51:36;15.40;99.90
25963;DHT22;13760;52.588;13.406;2023-05-07T09:54:05;15.30;99.90
25963;DHT22;13760;52.588;13.406;2023-05-07T09:56:32;15.20;99.90
25963;DHT22;13760;52.588;13.406;2023-05-07T09:59:00;15.10;99.90
25963;DHT22;13760;52.588;13.406;2023-05-07T10:01:27;15.10;99.90
25963;DHT22;13760;52.588;13.406;2023-05-07T10:03:53;15.10;99.90
25963;DHT22;13760;52.588;13.406;2023-05-07T10:06:20;14.90;99.90
25963;DHT22;13760;52.588;13.406;2023-05-07T10:08:45;14.90;99.90
25963;DHT22;13760;52.588;13.406;2023-05-07T10:11:12;14.70;99.90
25963;DHT22;13760;52.588;13.406;2023-05-07T10:13:37;14.80;99.90
25963;DHT22;13760;52.588;13.406;2023-05-07T10:16:06;14.70;99.90
25963;DHT22;13760;52.588;13.406;2023-05-07T10:18:33;14.50;99.90
25963;DHT22;13760;52.588;13.406;2023-05-07T10:21:04;14.50;99.90
25963;DHT22;13760;52.588;13.406;2023-05-07T10:23:32;14.40;99.90
25963;DHT22;13760;52.588;13.406;2023-05-07T10:26:03;14.40;99.90
25963;DHT22;13760;52.588;13.406;2023-05-07T10:28:32;14.40;99.90
25963;DHT22;13760;52.588;13.406;2023-05-07T10:31:13;14.50;99.90
25963;DHT22;13760;52.588;13.406;2023-05-07T10:33:41;14.60;99.90
25963;DHT22;13760;52.588;13.406;2023-05-07T10:36:07;14.70;99.90
25963;DHT22;13760;52.588;13.406;2023-05-07T10:38:33;14.70;99.90
25963;DHT22;13760;52.588;13.406;2023-05-07T10:40:59;14.80;99.90
25963;DHT22;13760;52.588;13.406;2023-05-07T10:43:25;14.90;99.90
25963;DHT22;13760;52.588;13.406;2023-05-07T10:46:10;15.00;99.90
25963;DHT22;13760;52.588;13.406;2023-05-07T10:51:35;15.10;99.90
25963;DHT22;13760;52.588;13.406;2023-05-07T10:56:35;15.00;99.90
25963;DHT22;13760;52.588;13.406;2023-05-07T11:01:54;15.30;99.90
25963;DHT22;13760;52.588;13.406;2023-05-07T11:04:21;15.60;99.90
25963;DHT22;13760;52.588;13.406;2023-05-07T11:15:09;16.20;99.90
25963;DHT22;13760;52.588;13.406;2023-05-07T11:17:52;16.30;99.90
25963;DHT22;13760;52.588;13.406;2023-05-07T11:20:18;16.30;99.90
25963;DHT22;13760;52.588;13.406;2023-05-07T11:22:43;16.20;99.90
25963;DHT22;13760;52.588;13.406;2023-05-07T11:25:09;16.40;99.90
25963;DHT22;13760;52.588;13.406;2023-05-07T11:27:35;16.70;99.90
25963;DHT22;13760;52.588;13.406;2023-05-07T11:30:01;16.80;99.90
25963;DHT22;13760;52.588;13.406;2023-05-07T11:32:31;16.70;99.90
25963;DHT22;13760;52.588;13.406;2023-05-07T11:35:00;16.50;99.90
25963;DHT22;13760;52.588;13.406;2023-05-07T11:37:27;16.10;99.90
25963;DHT22;13760;52.588;13.406;2023-05-07T11:40:09;16.20;99.90
25963;DHT22;13760;52.588;13.406;2023-05-07T11:42:38;16.30;99.90
25963;DHT22;13760;52.588;13.406;2023-05-07T11:45:05;16.50;99.90
25963;DHT22;13760;52.588;13.406;2023-05-07T11:47:31;16.60;99.90
25963;DHT22;13760;52.588;13.406;2023-05-07T11:49:57;16.40;99.90
25963;DHT22;13760;52.588;13.406;2023-05-07T11:52:27;16.30;99.90
25963;DHT22;13760;52.588;13.406;2023-05-07T11:54:57;16.40;99.90
25963;DHT22;13760;52.588;13.406;2023-05-07T11:57:26;16.50;99.90
25963;DHT22;13760;52.588;13.406;2023-05-07T12:00:01;16.90;99.90
25963;DHT22;13760;52.588;13.406;2023-05-07T12:02:30;17.10;99.90
25963;DHT22;13760;52.588;13.406;2023-05-07T12:04:56;17.00;99.90
25963;DHT22;13760;52.588;13.406;2023-05-07T12:07:24;16.90;99.90
25963;DHT22;13760;52.588;13.406;2023-05-07T12:09:50;17.00;99.90
25963;DHT22;13760;52.588;13.406;2023-05-07T12:12:15;16.90;99.90
25963;DHT22;13760;52.588;13.406;2023-05-07T12:14:43;16.90;99.90
25963;DHT22;13760;52.588;13.406;2023-05-07T12:17:11;16.70;99.40
25963;DHT22;13760;52.588;13.406;2023-05-07T12:19:38;16.70;99.90
25963;DHT22;13760;52.588;13.406;2023-05-07T12:22:04;16.80;99.00
25963;DHT22;13760;52.588;13.406;2023-05-07T12:24:46;17.10;99.00
25963;DHT22;13760;52.588;13.406;2023-05-07T12:27:16;17.00;98.20
25963;DHT22;13760;52.588;13.406;2023-05-07T12:29:46;17.10;98.10
25963;DHT22;13760;52.588;13.406;2023-05-07T12:32:16;16.90;97.70
25963;DHT22;13760;52.588;13.406;2023-05-07T12:34:42;17.10;97.70
25963;DHT22;13760;52.588;13.406;2023-05-07T12:37:07;17.00;98.20
25963;DHT22;13760;52.588;13.406;2023-05-07T12:39:33;17.30;98.30
25963;DHT22;13760;52.588;13.406;2023-05-07T12:41:59;17.40;98.40
25963;DHT22;13760;52.588;13.406;2023-05-07T12:44:29;17.60;98.00
25963;DHT22;13760;52.588;13.406;2023-05-07T12:46:55;17.50;97.10
25963;DHT22;13760;52.588;13.406;2023-05-07T12:49:21;17.40;97.30
25963;DHT22;13760;52.588;13.406;2023-05-07T12:51:47;17.30;96.60
25963;DHT22;13760;52.588;13.406;2023-05-07T12:54:14;17.30;96.90
25963;DHT22;13760;52.588;13.406;2023-05-07T12:56:39;17.40;97.40
25963;DHT22;13760;52.588;13.406;2023-05-07T12:59:05;17.70;96.40
25963;DHT22;13760;52.588;13.406;2023-05-07T13:01:34;17.60;95.30
25963;DHT22;13760;52.588;13.406;2023-05-07T13:04:03;17.80;95.30
25963;DHT22;13760;52.588;13.406;2023-05-07T13:06:30;17.90;95.20
25963;DHT22;13760;52.588;13.406;2023-05-07T13:08:56;17.80;94.10
25963;DHT22;13760;52.588;13.406;2023-05-07T13:11:22;17.70;93.90
25963;DHT22;13760;52.588;13.406;2023-05-07T13:13:48;17.70;94.40
25963;DHT22;13760;52.588;13.406;2023-05-07T13:16:13;17.80;93.70
25963;DHT22;13760;52.588;13.406;2023-05-07T13:18:40;17.70;93.60
25963;DHT22;13760;52.588;13.406;2023-05-07T13:21:05;17.80;94.10
25963;DHT22;13760;52.588;13.406;2023-05-07T13:23:31;18.00;92.90
25963;DHT22;13760;52.588;13.406;2023-05-07T13:25:56;18.10;92.20
25963;DHT22;13760;52.588;13.406;2023-05-07T13:28:23;18.20;92.60
25963;DHT22;13760;52.588;13.406;2023-05-07T13:30:49;18.10;91.80
25963;DHT22;13760;52.588;13.406;2023-05-07T13:33:17;17.80;92.10
25963;DHT22;13760;52.588;13.406;2023-05-07T13:35:43;17.80;91.80
25963;DHT22;13760;52.588;13.406;2023-05-07T13:38:08;17.80;92.60
25963;DHT22;13760;52.588;13.406;2023-05-07T13:40:34;17.80;92.70
25963;DHT22;13760;52.588;13.406;2023-05-07T13:43:00;17.60;92.90
25963;DHT22;13760;52.588;13.406;2023-05-07T13:45:28;17.50;93.10
25963;DHT22;13760;52.588;13.406;2023-05-07T13:47:55;17.50;93.30
25963;DHT22;13760;52.588;13.406;2023-05-07T13:50:20;17.70;93.70
25963;DHT22;13760;52.588;13.406;2023-05-07T13:52:46;17.70;92.40
25963;DHT22;13760;52.588;13.406;2023-05-07T13:55:23;17.70;92.20
25963;DHT22;13760;52.588;13.406;2023-05-07T13:57:58;17.80;92.40
25963;DHT22;13760;52.588;13.406;2023-05-07T14:00:24;18.10;91.70
25963;DHT22;13760;52.588;13.406;2023-05-07T14:02:50;18.10;91.10
25963;DHT22;13760;52.588;13.406;2023-05-07T14:05:15;18.10;90.00
25963;DHT22;13760;52.588;13.406;2023-05-07T14:07:41;18.00;90.80
25963;DHT22;13760;52.588;13.406;2023-05-07T14:10:07;17.80;90.20
25963;DHT22;13760;52.588;13.406;2023-05-07T14:12:33;17.50;90.00
25963;DHT22;13760;52.588;13.406;2023-05-07T14:14:59;17.30;90.00
25963;DHT22;13760;52.588;13.406;2023-05-07T14:17:24;17.30;90.00
25963;DHT22;13760;52.588;13.406;2023-05-07T14:19:52;17.40;90.20
25963;DHT22;13760;52.588;13.406;2023-05-07T14:22:22;17.40;89.40
25963;DHT22;13760;52.588;13.406;2023-05-07T14:24:48;17.40;89.70
25963;DHT22;13760;52.588;13.406;2023-05-07T14:27:15;17.40;90.50
25963;DHT22;13760;52.588;13.406;2023-05-07T14:29:41;17.30;91.10
25963;DHT22;13760;52.588;13.406;2023-05-07T14:32:07;17.30;91.10
25963;DHT22;13760;52.588;13.406;2023-05-07T14:34:33;17.10;91.30
25963;DHT22;13760;52.588;13.406;2023-05-07T14:36:59;16.90;91.20
25963;DHT22;13760;52.588;13.406;2023-05-07T14:39:25;16.70;91.30
25963;DHT22;13760;52.588;13.406;2023-05-07T14:41:51;16.60;91.30
25963;DHT22;13760;52.588;13.406;2023-05-07T14:44:17;16.50;91.20
25963;DHT22;13760;52.588;13.406;2023-05-07T14:46:42;16.60;91.80
25963;DHT22;13760;52.588;13.406;2023-05-07T14:49:08;16.60;91.20
25963;DHT22;13760;52.588;13.406;2023-05-07T14:51:41;16.60;91.40
25963;DHT22;13760;52.588;13.406;2023-05-07T14:54:07;16.50;92.00
25963;DHT22;13760;52.588;13.406;2023-05-07T14:56:34;16.60;91.90
25963;DHT22;13760;52.588;13.406;2023-05-07T14:59:00;16.60;92.30
25963;DHT22;13760;52.588;13.406;2023-05-07T15:01:26;16.50;92.10
25963;DHT22;13760;52.588;13.406;2023-05-07T15:03:51;16.50;91.90
25963;DHT22;13760;52.588;13.406;2023-05-07T15:06:17;16.40;92.30
25963;DHT22;13760;52.588;13.406;2023-05-07T15:08:42;16.30;92.40
25963;DHT22;13760;52.588;13.406;2023-05-07T15:11:08;16.30;92.10
25963;DHT22;13760;52.588;13.406;2023-05-07T15:13:33;16.40;93.10
25963;DHT22;13760;52.588;13.406;2023-05-07T15:15:59;16.50;92.50
25963;DHT22;13760;52.588;13.406;2023-05-07T15:18:24;16.50;91.70
25963;DHT22;13760;52.588;13.406;2023-05-07T15:20:50;16.50;92.20
25963;DHT22;13760;52.588;13.406;2023-05-07T15:23:15;16.40;92.50
25963;DHT22;13760;52.588;13.406;2023-05-07T15:25:41;16.40;92.20
25963;DHT22;13760;52.588;13.406;2023-05-07T15:28:07;16.40;92.40
25963;DHT22;13760;52.588;13.406;2023-05-07T15:30:33;16.50;93.10
25963;DHT22;13760;52.588;13.406;2023-05-07T15:33:01;16.50;92.80
25963;DHT22;13760;52.588;13.406;2023-05-07T15:35:26;16.40;92.70